Diamond Island, Maine
Current Conditions -  °F | °C
As of 9:51 PM on Monday 22 Dec 2014 (Local Time) from KPWM Reporting Station
Light Rain Light Rain  
Wind Chill:   Ceiling: 1900
Heat Index:   Visibility: 6mi
Dew Point:   Wind: 3mph
Humidity: 89%   Direction: 30°NNE
Pressure: 30.36"   Gusts: NA
Location:  43.6801°N, 70.1969°W
Report Text: KPWM 230251Z 03003KT 6SM -RA BR FEW007 BKN019 OVC024 02/01 A3036 RMK AO2 SLP282 P0002 60003 T00220006 58007
Loading
Personal Weather Stations






























Interactive Weather Map New forecast layout! Learn more

10-Day Weather Forecast

Advertisements
Track Severe Weather on mobile